• Join FlightAware (Why Join?)
  • Login
  • US Flag 
06:13PM EST


 

Airport Tracker/Info


-or-


 

Live Flight TrackerFlight Track Log ✈ CMP472 ✈ 18-Apr-2013 ✈ MPTO / PTY - KLAX

Flight Track Log - Related Links

Times and Time Zones

All times are in EDT time to prevent confusion due to time zone crossing. See the CMP472 flight status page for this flight to view local times or setup timezone preferences in your user account.

Time Position Orientation Groundspeed Altitude Reporting Facility
EDT Latitude Longitude Course Direction KTS MPH feet Rate Location/Type
01:03PM 9.1030 -79.3620 206° Southwest 176 203 2,200  Level FlightAware
01:05PM 9.1740 -79.3200 30° Northeast 230 265 4,700 1,560 Climbing FlightAware
01:05PM 9.2050 -79.3040 27° Northeast 265 305 5,500 1,920 Climbing FlightAware
01:05PM 9.2360 -79.3140 342° North 275 316 6,500 2,400 Climbing FlightAware
01:06PM 9.2480 -79.3300 307° West 292 336 7,100 2,520 Climbing FlightAware
01:06PM 9.2640 -79.3690 293° West 293 337 8,400 2,580 Climbing FlightAware
01:07PM 9.2780 -79.4000 295° West 295 339 9,500 2,040 Climbing FlightAware
01:07PM 9.3050 -79.4590 295° West 320 368 10,800 1,380 Climbing FlightAware
01:08PM 9.3310 -79.5180 294° West 356 410 11,500 1,500 Climbing FlightAware
01:09PM 9.3620 -79.5880 294° West 366 421 13,000 1,860 Climbing FlightAware
01:09PM 9.3910 -79.6520 295° West 376 433 14,200 1,860 Climbing FlightAware
01:10PM 9.4210 -79.7200 294° West 391 450 15,500 2,040 Climbing FlightAware
01:11PM 9.4540 -79.7930 295° West 388 447 17,100 1,920 Climbing FlightAware
01:12PM 9.4840 -79.8610 294° West 394 453 18,300 1,560 Climbing FlightAware
01:12PM 9.5140 -79.9290 294° West 406 467 19,200 1,380 Climbing FlightAware
01:13PM 9.5490 -80.0050 295° West 417 480 20,300 1,560 Climbing FlightAware
01:14PM 9.5880 -80.0930 294° West 418 481 21,600 1,500 Climbing FlightAware
01:14PM 9.6190 -80.1630 294° West 430 495 22,500 900 Climbing FlightAware
01:15PM 9.6610 -80.2570 294° West 436 502 23,100 1,500 Climbing FlightAware
01:16PM 9.7030 -80.3520 294° West 437 503 25,000 1,920 Climbing FlightAware
01:17PM 9.7360 -80.4270 294° West 440 506 25,900 1,200 Climbing FlightAware
01:17PM 9.7690 -80.5020 294° West 444 511 26,600 960 Climbing FlightAware
01:18PM 9.8010 -80.5730 295° West 446 513 27,200 780 Climbing FlightAware
01:19PM 9.8360 -80.6520 294° West 453 521 27,700 300 Climbing FlightAware
01:19PM 9.8680 -80.7280 293° West 453 521 27,700  Level FlightAware
01:20PM 9.8960 -80.7950 293° West 453 521 27,700  Level FlightAware
01:21PM 9.9310 -80.8780 293° West 453 521 27,700  Level FlightAware
01:22PM 9.9590 -80.9450 293° West 453 521 27,700  Level FlightAware
01:22PM 9.9860 -81.0110 293° West 453 521 27,700 120 Level FlightAware
01:25PM 10.1371 -81.1886 302° West  Level Estimated
01:26PM 10.1943 -81.2780 303° West  Level FlightAware Approximate
01:27PM 10.2516 -81.3675 303° West  Level FlightAware Approximate
01:28PM 10.3088 -81.4570 303° West  Level FlightAware Approximate
01:29PM 10.3660 -81.5466 303° West  Level FlightAware Approximate
01:30PM 10.4231 -81.6362 303° West  Level FlightAware Approximate
01:31PM 10.4803 -81.7258 303° West  Level FlightAware Approximate
01:32PM 10.5374 -81.8155 303° West  Level FlightAware Approximate
01:33PM 10.5944 -81.9052 303° West  Level FlightAware Approximate
01:34PM 10.6515 -81.9949 303° West  Level FlightAware Approximate
01:35PM 10.7085 -82.0846 303° West  Level FlightAware Approximate
01:36PM 10.7655 -82.1744 303° West  Level FlightAware Approximate
01:37PM 10.8225 -82.2643 303° West  Level FlightAware Approximate
01:38PM 10.8795 -82.3541 303° West  Level FlightAware Approximate
01:39PM 10.9364 -82.4440 303° West  Level FlightAware Approximate
01:40PM 10.9933 -82.5339 303° West  Level FlightAware Approximate
01:41PM 11.0502 -82.6239 303° West  Level FlightAware Approximate
01:42PM 11.1080 -82.7191 301° West  Level FlightAware Approximate
01:43PM 11.1626 -82.8105 301° West  Level FlightAware Approximate
01:44PM 11.2172 -82.9020 301° West  Level FlightAware Approximate
01:45PM 11.2718 -82.9935 301° West  Level FlightAware Approximate
01:46PM 11.3263 -83.0851 301° West  Level FlightAware Approximate
01:47PM 11.3808 -83.1766 301° West  Level FlightAware Approximate
01:48PM 11.4353 -83.2682 301° West  Level FlightAware Approximate
01:49PM 11.4897 -83.3599 301° West  Level FlightAware Approximate
01:50PM 11.5442 -83.4516 301° West  Level FlightAware Approximate
01:51PM 11.5985 -83.5433 301° West  Level FlightAware Approximate
01:52PM 11.6529 -83.6350 301° West  Level FlightAware Approximate
01:53PM 11.7072 -83.7268 301° West  Level FlightAware Approximate
01:54PM 11.7615 -83.8187 301° West  Level FlightAware Approximate
01:55PM 11.8158 -83.9105 301° West  Level FlightAware Approximate
01:56PM 11.8701 -84.0024 301° West  Level FlightAware Approximate
01:57PM 11.9243 -84.0944 301° West  Level FlightAware Approximate
01:58PM 11.9785 -84.1863 301° West  Level FlightAware Approximate
01:59PM 12.0326 -84.2783 301° West  Level FlightAware Approximate
02:00PM 12.0868 -84.3704 301° West  Level FlightAware Approximate
02:01PM 12.1409 -84.4625 301° West  Level FlightAware Approximate
02:02PM 12.1949 -84.5546 301° West  Level FlightAware Approximate
02:03PM 12.2490 -84.6467 301° West  Level FlightAware Approximate
02:04PM 12.3030 -84.7389 301° West  Level FlightAware Approximate
02:05PM 12.3569 -84.8312 301° West  Level FlightAware Approximate
02:06PM 12.4109 -84.9234 301° West  Level FlightAware Approximate
02:07PM 12.4652 -85.0154 301° West  Level FlightAware Approximate
02:08PM 12.5196 -85.1075 301° West  Level FlightAware Approximate
02:09PM 12.5740 -85.1995 301° West  Level FlightAware Approximate
02:10PM 12.6283 -85.2917 301° West  Level FlightAware Approximate
02:11PM 12.6826 -85.3838 301° West  Level FlightAware Approximate
02:12PM 12.7369 -85.4760 301° West  Level FlightAware Approximate
02:13PM 12.7911 -85.5682 301° West  Level FlightAware Approximate
02:14PM 12.8453 -85.6605 301° West  Level FlightAware Approximate
02:15PM 12.8995 -85.7528 301° West  Level FlightAware Approximate
02:16PM 12.9536 -85.8452 301° West  Level FlightAware Approximate
02:17PM 13.0077 -85.9376 301° West  Level FlightAware Approximate
02:18PM 13.0618 -86.0300 301° West  Level FlightAware Approximate
02:19PM 13.1158 -86.1225 301° West  Level FlightAware Approximate
02:20PM 13.1698 -86.2150 301° West  Level FlightAware Approximate
02:20PM 13.6850 -87.3810 301° West 452 520 36,000  Level FlightAware
02:21PM 13.2238 -86.3075 301° West  Level FlightAware Approximate
02:21PM 13.7360 -87.4640 302° West 449 517 36,000  Level FlightAware
02:22PM 13.7800 -87.5370 302° West 444 511 36,000  Level FlightAware
02:22PM 13.8240 -87.6090 302° West 444 511 36,000  Level FlightAware
02:23PM 13.8740 -87.6900 302° West 442 509 36,000  Level FlightAware
02:24PM 13.9180 -87.7620 302° West 442 509 36,000  Level FlightAware
02:24PM 13.9620 -87.8340 302° West 441 507 36,000  Level FlightAware
02:25PM 14.0110 -87.9150 302° West 442 509 36,000  Level FlightAware
02:26PM 14.0540 -87.9860 302° West 442 509 36,000  Level FlightAware
02:27PM 14.1040 -88.0680 302° West 442 509 36,000  Level FlightAware
02:27PM 14.1490 -88.1420 302° West 443 510 36,000  Level FlightAware
02:28PM 14.1940 -88.2150 302° West 444 511 36,000  Level FlightAware
02:29PM 14.2420 -88.2950 302° West 444 511 36,000  Level FlightAware
02:29PM 14.2870 -88.3690 302° West 445 512 36,000  Level FlightAware
02:30PM 14.3360 -88.4500 302° West 447 514 36,000  Level FlightAware
02:31PM 14.3760 -88.5180 301° West 453 521 36,000  Level FlightAware
02:31PM 14.4320 -88.6090 302° West 454 522 36,000  Level FlightAware
02:32PM 14.4750 -88.6810 302° West 454 522 36,000  Level FlightAware
02:33PM 14.5200 -88.7560 302° West 454 522 36,000  Level FlightAware
02:34PM 14.6110 -88.9060 302° West 449 517 36,000  Level FlightAware
02:35PM 14.6880 -89.0340 302° West 447 514 36,000  Level FlightAware
02:37PM 14.7700 -89.1700 302° West 444 511 36,000  Level FlightAware
02:38PM 14.8460 -89.2980 302° West 442 509 36,000  Level FlightAware
02:39PM 14.9270 -89.4340 302° West 440 506 36,000  Level FlightAware
02:40PM 15.0030 -89.5600 302° West 440 506 36,000  Level FlightAware
02:41PM 15.0840 -89.6960 302° West 440 506 36,000  Level FlightAware
02:43PM 15.1590 -89.8230 301° West 441 507 36,000  Level FlightAware
02:44PM 15.2350 -89.9500 302° West 443 510 36,000  Level FlightAware
02:44PM 15.2720 -90.0130 301° West 443 510 36,000  Level FlightAware
02:45PM 15.3160 -90.0870 302° West 443 510 36,000  Level FlightAware
02:46PM 15.3970 -90.2240 302° West 443 510 36,000  Level FlightAware
02:47PM 15.4480 -90.3100 302° West 443 510 36,000  Level FlightAware
02:48PM 15.4960 -90.3910 302° West 444 511 36,000  Level FlightAware
02:48PM 15.5360 -90.4590 301° West 444 511 36,000  Level FlightAware
02:49PM 15.5880 -90.5480 301° West 445 512 36,000  Level FlightAware
02:50PM 15.6230 -90.6060 302° West 445 512 36,000  Level FlightAware
02:51PM 15.6640 -90.6800 300° West 445 512 36,000  Level FlightAware
02:51PM 15.7150 -90.7660 302° West 445 512 36,000  Level FlightAware
02:52PM 15.7500 -90.8290 300° West 445 512 36,000  Level FlightAware
02:53PM 15.7850 -90.8920 300° West 445 512 36,000  Level FlightAware
02:53PM 15.8200 -90.9550 300° West 445 512 36,000  Level FlightAware
02:54PM 15.8550 -91.0180 300° West 445 512 36,000  Level FlightAware
02:55PM 15.8990 -91.0970 300° West 445 512 36,000  Level FlightAware
02:55PM 15.9340 -91.1600 300° West 445 512 36,000  Level FlightAware
02:56PM 15.9680 -91.2230 299° West 445 512 36,000  Level FlightAware
02:57PM 16.0030 -91.2860 300° West 445 512 36,000  Level FlightAware
02:57PM 16.0380 -91.3490 300° West 445 512 36,000  Level FlightAware
02:58PM 16.0820 -91.4280 300° West 445 512 36,000  Level FlightAware
02:59PM 16.1170 -91.4910 300° West 445 512 36,000  Level FlightAware
03:00PM 16.1520 -91.5540 300° West 445 512 36,000  Level FlightAware
03:00PM 16.1870 -91.6170 300° West 445 512 36,000  Level FlightAware
03:03PM 16.3365 -91.8005 310° West  Level FlightAware Approximate
03:04PM 16.4045 -91.8840 310° West  Level FlightAware Approximate
03:05PM 16.4724 -91.9676 310° West  Level FlightAware Approximate
03:06PM 16.5402 -92.0512 310° West  Level FlightAware Approximate
03:07PM 16.6080 -92.1349 310° West  Level FlightAware Approximate
03:08PM 16.6758 -92.2186 310° West  Level FlightAware Approximate
03:09PM 16.7436 -92.3024 310° West  Level FlightAware Approximate
03:10PM 16.8113 -92.3862 310° West  Level FlightAware Approximate
03:11PM 16.8790 -92.4701 310° West  Level FlightAware Approximate
03:12PM 16.9467 -92.5541 310° West  Level FlightAware Approximate
03:13PM 17.0143 -92.6381 310° West  Level FlightAware Approximate
03:14PM 17.0819 -92.7222 310° West  Level FlightAware Approximate
03:15PM 17.1494 -92.8064 310° West  Level FlightAware Approximate
03:16PM 17.2169 -92.8906 310° West  Level FlightAware Approximate
03:17PM 17.2844 -92.9749 310° West  Level FlightAware Approximate
03:18PM 17.3519 -93.0592 310° West  Level FlightAware Approximate
03:19PM 17.4193 -93.1436 310° West  Level FlightAware Approximate
03:20PM 17.4867 -93.2281 310° West  Level FlightAware Approximate
03:21PM 17.5540 -93.3126 310° West  Level FlightAware Approximate
03:22PM 17.6213 -93.3972 310° West  Level FlightAware Approximate
03:23PM 17.6886 -93.4819 310° West  Level FlightAware Approximate
03:24PM 17.7558 -93.5666 310° West  Level FlightAware Approximate
03:25PM 17.8230 -93.6514 310° West  Level FlightAware Approximate
03:26PM 17.8902 -93.7362 310° West  Level FlightAware Approximate
03:27PM 17.9573 -93.8211 310° West  Level FlightAware Approximate
03:28PM 18.0244 -93.9061 310° West  Level FlightAware Approximate
03:29PM 18.0914 -93.9911 310° West  Level FlightAware Approximate
03:30PM 18.1584 -94.0762 310° West  Level FlightAware Approximate
03:31PM 18.2254 -94.1614 310° West  Level FlightAware Approximate
03:32PM 18.2923 -94.2466 310° West  Level FlightAware Approximate
03:33PM 18.3592 -94.3319 310° West  Level FlightAware Approximate
03:34PM 18.4261 -94.4173 310° West  Level FlightAware Approximate
03:35PM 18.4929 -94.5027 310° West  Level FlightAware Approximate
03:36PM 18.5597 -94.5882 309° West  Level FlightAware Approximate
03:37PM 18.6264 -94.6738 309° West  Level FlightAware Approximate
03:38PM 18.6931 -94.7594 309° West  Level FlightAware Approximate
03:39PM 18.7598 -94.8451 309° West  Level FlightAware Approximate
03:40PM 18.8265 -94.9309 309° West  Level FlightAware Approximate
03:41PM 18.8930 -95.0167 309° West  Level FlightAware Approximate
03:42PM 18.9596 -95.1027 309° West  Level FlightAware Approximate
03:43PM 19.0257 -95.1895 309° West  Level FlightAware Approximate
03:44PM 19.0912 -95.2764 309° West  Level FlightAware Approximate
03:45PM 19.1567 -95.3633 309° West  Level FlightAware Approximate
03:46PM 19.2221 -95.4504 309° West  Level FlightAware Approximate
03:47PM 19.2875 -95.5375 308° West  Level FlightAware Approximate
03:48PM 19.3528 -95.6246 308° West  Level FlightAware Approximate
03:49PM 19.4181 -95.7119 308° West  Level FlightAware Approximate
03:50PM 19.4833 -95.7991 308° West  Level FlightAware Approximate
03:51PM 19.5485 -95.8865 308° West  Level FlightAware Approximate
03:52PM 19.6136 -95.9740 308° West  Level FlightAware Approximate
03:53PM 19.6788 -96.0615 308° West  Level FlightAware Approximate
03:54PM 19.7438 -96.1490 308° West  Level FlightAware Approximate
03:55PM 19.8089 -96.2367 308° West  Level FlightAware Approximate
03:56PM 19.8738 -96.3244 308° West  Level FlightAware Approximate
03:57PM 19.9388 -96.4122 308° West  Level FlightAware Approximate
03:58PM 20.0037 -96.5001 308° West  Level FlightAware Approximate
03:59PM 20.0686 -96.5880 308° West  Level FlightAware Approximate
04:00PM 20.1334 -96.6760 308° West  Level FlightAware Approximate
04:01PM 20.1981 -96.7641 308° West  Level FlightAware Approximate
04:02PM 20.2688 -96.8469 312° West  Level FlightAware Approximate
04:03PM 20.3400 -96.9292 313° West  Level FlightAware Approximate
04:04PM 20.4115 -97.0113 313° West  Level FlightAware Approximate
04:05PM 20.4830 -97.0935 313° West  Level FlightAware Approximate
04:06PM 20.5544 -97.1757 313° West  Level FlightAware Approximate
04:07PM 20.6258 -97.2580 313° West  Level FlightAware Approximate
04:08PM 20.6971 -97.3404 313° West  Level FlightAware Approximate
04:09PM 20.7684 -97.4229 313° West  Level FlightAware Approximate
04:10PM 20.8397 -97.5054 313° West  Level FlightAware Approximate
04:11PM 20.9109 -97.5881 313° West  Level FlightAware Approximate
04:12PM 20.9821 -97.6708 313° West  Level FlightAware Approximate
04:13PM 21.0532 -97.7535 313° West  Level FlightAware Approximate
04:14PM 21.1243 -97.8364 313° West  Level FlightAware Approximate
04:15PM 21.1954 -97.9193 313° West  Level FlightAware Approximate
04:16PM 21.2664 -98.0023 313° West  Level FlightAware Approximate
04:17PM 21.3374 -98.0854 313° West  Level FlightAware Approximate
04:18PM 21.4083 -98.1686 312° West  Level FlightAware Approximate
04:19PM 21.4792 -98.2519 312° West  Level FlightAware Approximate
04:20PM 21.5501 -98.3352 312° West  Level FlightAware Approximate
04:21PM 21.6209 -98.4186 312° West  Level FlightAware Approximate
04:22PM 21.6916 -98.5022 312° West  Level FlightAware Approximate
04:23PM 21.7624 -98.5857 312° West  Level FlightAware Approximate
04:24PM 21.8332 -98.6693 313° West  Level FlightAware Approximate
04:25PM 21.9046 -98.7523 313° West  Level FlightAware Approximate
04:26PM 21.9759 -98.8354 313° West  Level FlightAware Approximate
04:27PM 22.0471 -98.9187 313° West  Level FlightAware Approximate
04:28PM 22.1183 -99.0020 312° West  Level FlightAware Approximate
04:29PM 22.1889 -99.0860 312° West  Level FlightAware Approximate
04:30PM 22.2595 -99.1700 312° West  Level FlightAware Approximate
04:31PM 22.3300 -99.2542 312° West  Level FlightAware Approximate
04:32PM 22.4005 -99.3384 312° West  Level FlightAware Approximate
04:33PM 22.4709 -99.4227 312° West  Level FlightAware Approximate
04:34PM 22.5413 -99.5071 312° West  Level FlightAware Approximate
04:35PM 22.6116 -99.5916 312° West  Level FlightAware Approximate
04:36PM 22.6819 -99.6761 312° West  Level FlightAware Approximate
04:37PM 22.7521 -99.7608 312° West  Level FlightAware Approximate
04:38PM 22.8223 -99.8455 312° West  Level FlightAware Approximate
04:39PM 22.8925 -99.9304 312° West  Level FlightAware Approximate
04:40PM 22.9628 -100.0151 313° West  Level FlightAware Approximate
04:41PM 23.0337 -100.0992 313° West  Level FlightAware Approximate
04:42PM 23.1047 -100.1834 312° West  Level FlightAware Approximate
04:43PM 23.1756 -100.2677 312° West  Level FlightAware Approximate
04:44PM 23.2454 -100.3530 311° West  Level FlightAware Approximate
04:45PM 23.3140 -100.4397 311° West  Level FlightAware Approximate
04:46PM 23.3824 -100.5264 311° West  Level FlightAware Approximate
04:47PM 23.4509 -100.6133 311° West  Level FlightAware Approximate
04:48PM 23.5227 -100.6967 313° West  Level FlightAware Approximate
04:49PM 23.5938 -100.7811 313° West  Level FlightAware Approximate
04:50PM 23.6648 -100.8655 313° West  Level FlightAware Approximate
04:51PM 23.7358 -100.9501 313° West  Level FlightAware Approximate
04:52PM 23.8067 -101.0347 312° West  Level FlightAware Approximate
04:53PM 23.8776 -101.1195 312° West  Level FlightAware Approximate
04:54PM 23.9484 -101.2043 312° West  Level FlightAware Approximate
04:55PM 24.0192 -101.2892 312° West  Level FlightAware Approximate
04:56PM 24.0899 -101.3743 312° West  Level FlightAware Approximate
04:57PM 24.1606 -101.4594 312° West  Level FlightAware Approximate
04:58PM 24.2234 -101.5517 306° West  Level FlightAware Approximate
04:59PM 24.2854 -101.6447 306° West  Level FlightAware Approximate
05:00PM 24.3455 -101.7392 305° West  Level FlightAware Approximate
05:01PM 24.4050 -101.8342 305° West  Level FlightAware Approximate
05:02PM 24.4644 -101.9293 304° West  Level FlightAware Approximate
05:03PM 24.5238 -102.0245 304° West  Level FlightAware Approximate
05:04PM 24.5849 -102.1184 307° West  Level FlightAware Approximate
05:05PM 24.6473 -102.2113 306° West  Level FlightAware Approximate
05:06PM 24.7097 -102.3043 306° West  Level FlightAware Approximate
05:07PM 24.7720 -102.3974 306° West  Level FlightAware Approximate
05:08PM 24.8343 -102.4906 306° West  Level FlightAware Approximate
05:09PM 24.8965 -102.5839 306° West  Level FlightAware Approximate
05:10PM 24.9587 -102.6772 306° West  Level FlightAware Approximate
05:11PM 25.0208 -102.7707 306° West  Level FlightAware Approximate
05:12PM 25.0828 -102.8642 306° West  Level FlightAware Approximate
05:13PM 25.1448 -102.9579 306° West  Level FlightAware Approximate
05:14PM 25.2067 -103.0516 306° West  Level FlightAware Approximate
05:15PM 25.2686 -103.1454 306° West  Level FlightAware Approximate
05:16PM 25.3305 -103.2393 306° West  Level FlightAware Approximate
05:17PM 25.3922 -103.3334 306° West  Level FlightAware Approximate
05:18PM 25.4539 -103.4275 306° West  Level FlightAware Approximate
05:19PM 25.5156 -103.5217 306° West  Level FlightAware Approximate
05:20PM 25.5772 -103.6160 306° West  Level FlightAware Approximate
05:21PM 25.6387 -103.7104 306° West  Level FlightAware Approximate
05:22PM 25.7002 -103.8049 306° West  Level FlightAware Approximate
05:23PM 25.7616 -103.8995 306° West  Level FlightAware Approximate
05:24PM 25.8229 -103.9941 306° West  Level FlightAware Approximate
05:25PM 25.8842 -104.0889 306° West  Level FlightAware Approximate
05:26PM 25.9454 -104.1838 306° West  Level FlightAware Approximate
05:27PM 26.0066 -104.2788 306° West  Level FlightAware Approximate
05:28PM 26.0677 -104.3739 306° West  Level FlightAware Approximate
05:29PM 26.1287 -104.4691 306° West  Level FlightAware Approximate
05:30PM 26.1897 -104.5643 306° West  Level FlightAware Approximate
05:31PM 26.2506 -104.6597 305° West  Level FlightAware Approximate
05:32PM 26.3115 -104.7552 305° West  Level FlightAware Approximate
05:33PM 26.3722 -104.8508 305° West  Level FlightAware Approximate
05:34PM 26.4330 -104.9465 305° West  Level FlightAware Approximate
05:35PM 26.4936 -105.0423 305° West  Level FlightAware Approximate
05:36PM 26.5542 -105.1381 305° West  Level FlightAware Approximate
05:37PM 26.6147 -105.2341 305° West  Level FlightAware Approximate
05:38PM 26.6752 -105.3302 305° West  Level FlightAware Approximate
05:39PM 26.7356 -105.4264 305° West  Level FlightAware Approximate
05:40PM 26.7959 -105.5227 305° West  Level FlightAware Approximate
05:41PM 26.8562 -105.6191 305° West  Level FlightAware Approximate
05:42PM 26.9164 -105.7156 305° West  Level FlightAware Approximate
05:43PM 26.9766 -105.8122 305° West  Level FlightAware Approximate
05:44PM 27.0366 -105.9089 305° West  Level FlightAware Approximate
05:45PM 27.0966 -106.0057 305° West  Level FlightAware Approximate
05:46PM 27.1566 -106.1026 305° West  Level FlightAware Approximate
05:47PM 27.2164 -106.1996 305° West  Level FlightAware Approximate
05:48PM 27.2763 -106.2968 305° West  Level FlightAware Approximate
05:49PM 27.3360 -106.3940 305° West  Level FlightAware Approximate
05:50PM 27.3957 -106.4913 305° West  Level FlightAware Approximate
05:51PM 27.4553 -106.5887 305° West  Level FlightAware Approximate
05:52PM 27.5148 -106.6863 305° West  Level FlightAware Approximate
05:53PM 27.5743 -106.7839 305° West  Level FlightAware Approximate
05:54PM 27.6338 -106.8816 304° West  Level FlightAware Approximate
05:55PM 27.6931 -106.9795 304° West  Level FlightAware Approximate
05:56PM 27.7524 -107.0774 304° West  Level FlightAware Approximate
05:57PM 27.8117 -107.1754 304° West  Level FlightAware Approximate
05:58PM 27.8708 -107.2736 304° West  Level FlightAware Approximate
05:59PM 27.9300 -107.3718 304° West  Level FlightAware Approximate
06:00PM 27.9890 -107.4702 304° West  Level FlightAware Approximate
06:01PM 28.0479 -107.5686 304° West  Level FlightAware Approximate
06:02PM 28.1060 -107.6678 303° West  Level FlightAware Approximate
06:03PM 28.1636 -107.7674 303° West  Level FlightAware Approximate
06:04PM 28.2212 -107.8671 303° West  Level FlightAware Approximate
06:05PM 28.2786 -107.9669 303° West  Level FlightAware Approximate
06:06PM 28.3360 -108.0668 303° West  Level FlightAware Approximate
06:07PM 28.3934 -108.1668 303° West  Level FlightAware Approximate
06:08PM 28.4506 -108.2670 303° West  Level FlightAware Approximate
06:09PM 28.5078 -108.3672 303° West  Level FlightAware Approximate
06:10PM 28.5649 -108.4676 303° West  Level FlightAware Approximate
06:11PM 28.6233 -108.5670 304° West  Level FlightAware Approximate
06:12PM 28.6823 -108.6660 304° West  Level FlightAware Approximate
06:13PM 28.7411 -108.7652 304° West  Level FlightAware Approximate
06:14PM 28.8000 -108.8645 304° West  Level FlightAware Approximate
06:15PM 28.8587 -108.9639 304° West  Level FlightAware Approximate
06:16PM 28.9174 -109.0633 304° West  Level FlightAware Approximate
06:16PM 29.9450 -110.6930 304° West 381 438 36,000  Level FlightAware
06:17PM 28.9760 -109.1630 304° West  Level FlightAware Approximate
06:17PM 29.9870 -110.7690 303° West 380 437 36,000  Level FlightAware
06:18PM 30.0240 -110.8350 303° West 380 437 36,000  Level FlightAware
06:18PM 30.0690 -110.9140 303° West 380 437 36,000  Level FlightAware
06:19PM 30.1060 -110.9810 303° West 380 437 36,000  Level FlightAware
06:20PM 30.1450 -111.0500 303° West 379 436 36,000  Level FlightAware
06:20PM 30.1860 -111.1250 302° West 379 436 36,000  Level FlightAware
06:21PM 30.2250 -111.1930 304° West 379 436 36,000  Level FlightAware
06:22PM 30.2690 -111.2730 303° West 379 436 36,000  Level FlightAware
06:23PM 30.3060 -111.3390 303° West 381 438 36,000  Level FlightAware
06:23PM 30.3440 -111.4090 302° West 381 438 36,000  Level FlightAware
06:24PM 30.3860 -111.4850 303° West 383 441 36,000  Level FlightAware
06:25PM 30.4240 -111.5540 303° West 383 441 36,000  Level FlightAware
06:25PM 30.4670 -111.6320 303° West 384 442 36,000  Level FlightAware
06:26PM 30.5010 -111.6940 302° West 385 443 36,000  Level FlightAware
06:27PM 30.5400 -111.7650 303° West 36,000  Level FlightAware
06:27PM 30.5750 -111.8280 303° West 383 441 36,000  Level FlightAware
06:28PM 30.6240 -111.9180 302° West 382 440 36,000  Level FlightAware
06:29PM 30.6730 -112.0070 303° West 379 436 36,000  Level FlightAware
06:30PM 30.7160 -112.0860 302° West 377 434 36,000  Level FlightAware
06:31PM 30.7800 -112.2050 302° West 377 434 36,000  Level FlightAware
06:32PM 30.8450 -112.3230 303° West 378 435 36,000  Level FlightAware
06:33PM 30.9180 -112.4620 301° West 379 436 36,000  Level FlightAware
06:34PM 30.9490 -112.5210 302° West 379 436 36,000  Level FlightAware
06:36PM 31.0440 -112.6940 303° West 385 443 36,000  Level FlightAware
06:37PM 31.1110 -112.8180 302° West 386 444 36,000  Level FlightAware
06:38PM 31.1820 -112.9520 302° West 387 445 36,000  Level FlightAware
06:39PM 31.2540 -113.0880 302° West 392 451 36,000  Level FlightAware
06:41PM 31.3240 -113.2200 302° West 395 455 36,000  Level FlightAware
06:41PM 31.3620 -113.2920 302° West 394 453 36,000  Level FlightAware
06:42PM 31.4000 -113.3650 301° West 394 453 36,000  Level FlightAware
06:43PM 31.4320 -113.4270 301° West 394 453 36,000  Level FlightAware
06:43PM 31.4630 -113.4890 300° West 394 453 36,000  Level FlightAware
06:44PM 31.4950 -113.5520 301° West 394 453 36,000  Level FlightAware
06:45PM 31.5270 -113.6140 301° West 394 453 36,000  Level FlightAware
06:45PM 31.6150 -113.7440 309° West 397 457 36,000  Level FlightAware
06:46PM 31.6460 -113.8000 303° West 398 458 36,000  Level FlightAware
06:47PM 31.7000 -113.8970 303° West 400 460 36,000  Level FlightAware
06:48PM 31.7350 -113.9590 304° West 400 460 36,000  Level FlightAware
06:48PM 31.7690 -114.0220 302° West 400 460 36,000  Level FlightAware
06:49PM 31.8030 -114.0840 303° West 400 460 36,000  Level FlightAware
06:50PM 31.8460 -114.1610 303° West 400 460 36,000  Level FlightAware
06:51PM 31.8800 -114.2230 303° West 400 460 36,000  Level FlightAware
06:51PM 31.9140 -114.2860 302° West 400 460 36,000  Level FlightAware
06:52PM 31.9490 -114.3480 304° West 400 460 36,000  Level FlightAware
06:53PM 31.9830 -114.4100 303° West 400 460 36,000  Level FlightAware
06:53PM 32.0260 -114.4880 303° West 400 460 36,000  Level FlightAware
06:54PM 32.0600 -114.5500 303° West 400 460 36,000  Level FlightAware
06:55PM 32.0940 -114.6120 303° West 400 460 36,000  Level FlightAware
06:55PM 32.1290 -114.6750 303° West 400 460 36,000  Level FlightAware
06:56PM 32.1710 -114.7520 303° West 400 460 36,000 -600 Level FlightAware
06:59PM 32.2932 -114.9959 301° West  Level FlightAware Approximate
06:59PM 32.4306 -115.2408 300° West 401 461 34,000  Level Los Angeles Center
07:00PM 32.3466 -115.1030 301° West  Level FlightAware Approximate
07:00PM 32.4883 -115.3458 303° West 398 458 34,000  Level Los Angeles Center
07:01PM 32.3999 -115.2102 301° West  Level FlightAware Approximate
07:01PM 32.5600 -115.4786 303° West 400 460 34,000  Level Los Angeles Center
07:02PM 32.4531 -115.3175 300° West  Level FlightAware Approximate
07:02PM 32.6197 -115.5903 302° West 401 461 34,000  Level Los Angeles Center
07:03PM 32.5062 -115.4249 300° West  Level FlightAware Approximate
07:03PM 32.6786 -115.7017 302° West 401 461 33,900  Level Los Angeles Center
07:04PM 32.5592 -115.5324 300° West  Level FlightAware Approximate
07:09PM 33.0250 -116.3630 302° West 368 423 29,300  Level FlightAware
07:10PM 33.0720 -116.4540 302° West 360 414 26,600 -2,640 Descending FlightAware
07:11PM 33.1000 -116.5080 302° West 355 409 25,600 -1,860 Descending FlightAware
07:11PM 33.1400 -116.5960 299° West 349 402 24,000 -1,080 Descending FlightAware
07:12PM 33.1510 -116.6740 280° West 362 417 24,000 -1,080 Level FlightAware
07:13PM 33.1610 -116.7480 279° West 366 421 22,600 -1,560 Descending FlightAware
07:13PM 33.1700 -116.8260 278° West 361 415 21,800 -1,380 Descending FlightAware
07:14PM 33.1810 -116.9200 278° West 353 406 20,500 -1,800 Descending FlightAware
07:16PM 33.1990 -117.0650 278° West 338 389 18,100 -2,100 Descending FlightAware
07:16PM 33.2090 -117.1530 278° West 329 379 16,500 -2,220 Descending FlightAware
07:17PM 33.2190 -117.2330 279° West 325 374 15,000 -1,980 Descending FlightAware
07:18PM 33.2270 -117.3040 278° West 319 367 13,700 -1,860 Descending FlightAware
07:18PM 33.2360 -117.3790 278° West 312 359 12,400 -1,380 Descending FlightAware
07:19PM 33.2430 -117.4490 277° West 321 369 11,800 -1,140 Descending FlightAware
07:20PM 33.2470 -117.5210 274° West 327 376 10,900 -1,320 Descending FlightAware
07:20PM 33.2510 -117.6010 273° West 306 352 10,000 -960 Descending FlightAware
07:21PM 33.2530 -117.6400 274° West 290 334 9,800 -300 Descending FlightAware
07:21PM 33.2570 -117.6670 280° West 284 327 9,800  Level FlightAware
07:21PM 33.2680 -117.6830 309° West 278 320 9,800  Level FlightAware
07:22PM 33.2850 -117.6960 327° Northwest 273 314 9,800  Level FlightAware
07:22PM 33.3190 -117.7200 329° Northwest 274 315 9,800  Level FlightAware
07:23PM 33.3440 -117.7380 329° Northwest 274 315 9,800  Level FlightAware
07:23PM 33.3760 -117.7610 329° Northwest 273 314 9,800 -480 Level FlightAware
07:23PM 33.4050 -117.7820 329° Northwest 276 318 9,400 -1,440 Descending FlightAware
07:24PM 33.4390 -117.8060 330° Northwest 279 321 8,500 -1,440 Descending FlightAware
07:24PM 33.4640 -117.8240 329° Northwest 272 313 8,100 -1,140 Descending FlightAware
07:25PM 33.4970 -117.8480 329° Northwest 265 305 7,500 -1,320 Descending FlightAware
07:25PM 33.5280 -117.8700 329° Northwest 264 304 6,800 -780 Descending FlightAware
07:26PM 33.5560 -117.8900 329° Northwest 262 302 6,800  Level FlightAware
07:26PM 33.5870 -117.9130 328° Northwest 264 304 6,800  Level FlightAware
07:27PM 33.6120 -117.9310 329° Northwest 262 302 6,800  Level FlightAware
07:27PM 33.6440 -117.9540 329° Northwest 262 302 6,800  Level FlightAware
07:28PM 33.6710 -117.9730 330° Northwest 265 305 6,800  Level FlightAware
07:28PM 33.7020 -117.9960 328° Northwest 263 303 6,800  Level FlightAware
07:28PM 33.7160 -118.0060 329° Northwest 260 299 6,800  Level FlightAware
07:29PM 33.7430 -118.0260 328° Northwest 266 306 6,800  Level FlightAware
07:29PM 33.7750 -118.0490 329° Northwest 260 299 6,800 -120 Level FlightAware
07:30PM 33.8070 -118.0700 331° Northwest 255 293 6,700 -1,020 Descending FlightAware
07:30PM 33.8310 -118.0870 330° Northwest 266 306 5,900 -1,980 Descending FlightAware
07:30PM 33.8490 -118.0980 333° Northwest 268 308 5,400 -1,380 Descending FlightAware
07:31PM 33.8810 -118.1180 333° Northwest 250 288 4,900 -1,200 Descending FlightAware
07:31PM 33.9070 -118.1330 334° Northwest 244 281 4,300 -1,380 Descending FlightAware
07:32PM 33.9200 -118.1450 323° Northwest 238 274 4,000 -1,200 Descending FlightAware
07:32PM 33.9280 -118.1620 300° West 227 261 3,700 -1,800 Descending FlightAware
07:32PM 33.9380 -118.1910 293° West 219 252 2,800 -1,560 Descending FlightAware
07:33PM 33.9490 -118.2210 294° West 204 235 2,300 -720 Descending FlightAware
07:33PM 33.9530 -118.2360 288° West 182 209 2,300 -600 Level FlightAware
07:33PM 33.9500 -118.2590 261° West 163 188 1,900 -720 Descending FlightAware
07:34PM 33.9470 -118.2870 263° West 145 167 1,500 -780 Descending FlightAware
07:35PM 33.9440 -118.3170 263° West 133 153 1,000 -600 Descending FlightAware
07:35PM 33.9420 -118.3410 264° West 133 153 900 -600 Descending FlightAware
07:36PM 33.9390 -118.3610 260° West 142 163 300 -1,080 Descending FlightAware
07:36PM 33.9380 -118.3780 266° West 137 158 -720 Descending FlightAware
07:37PM 33.9360 -118.3960 262° West 137 158  Level FlightAware